Time;durP1;ratioP1;P1;durP2;ratioP2;P2;SDS_P1;SDS_P2;PMS_P1;PMS_P2;Temp;Humidity;BMP_temperature;BMP_pressure;BME280_temperature;BME280_humidity;BME280_pressure;Samples;Min_cycle;Max_cycle;Signal;HPM_P1;HPM_P2
2023/09/26 00:01:48;;;;;;;;;;;;;;;;;;5071550;28;19962;-74
2023/09/26 00:04:14;;;;;;;;;;;;;;;;;;5071542;28;20393;-72
2023/09/26 00:06:40;;;;;;;;;;;;;;;;;;5071871;28;19908;-74
2023/09/26 00:09:08;;;;;;;;;;;;;;;;;;5071799;28;19919;-74
2023/09/26 00:11:34;;;;;;;;;;;;;;;;;;5071774;28;19922;-73
2023/09/26 00:14:00;;;;;;;;;;;;;;;;;;5070775;28;19961;-74
2023/09/26 00:16:26;;;;;;;;;;;;;;;;;;5071757;28;19912;-74
2023/09/26 00:18:52;;;;;;;;;;;;;;;;;;5071784;28;19912;-74
2023/09/26 00:21:17;;;;;;;;;;;;;;;;;;5071646;28;19913;-74
2023/09/26 00:23:43;;;;;;;;;;;;;;;;;;5071302;28;20372;-74
2023/09/26 00:26:11;;;;;;;;;;;;;;;;;;5071832;28;19916;-75
2023/09/26 00:28:37;;;;;;;;;;;;;;;;;;5071750;28;19912;-74
2023/09/26 00:31:04;;;;;;;;;;;;;;;;;;5071763;28;19919;-74
2023/09/26 00:33:30;;;;;;;;;;;;;;;;;;5071653;28;19908;-76
2023/09/26 00:35:57;;;;;;;;;;;;;;;;;;5071754;28;19939;-76
2023/09/26 00:38:23;;;;;;;;;;;;;;;;;;5070873;28;19944;-76
2023/09/26 00:40:49;;;;;;;;;;;;;;;;;;5070267;28;20334;-75
2023/09/26 00:43:15;;;;;;;;;;;;;;;;;;5071371;28;19974;-75
2023/09/26 00:45:41;;;;;;;;;;;;;;;;;;5071502;28;19938;-77
2023/09/26 00:48:07;;;;;;;;;;;;;;;;;;5072145;28;19909;-76
2023/09/26 00:50:33;;;;;;;;;;;;;;;;;;5071546;28;19912;-75
2023/09/26 00:52:59;;;;;;;;;;;;;;;;;;5072543;28;19912;-75
2023/09/26 00:55:25;;;;;;;;;;;;;;;;;;5069970;28;20007;-75
2023/09/26 00:57:51;;;;;;;;;;;;;;;;;;5067826;28;19912;-75
2023/09/26 01:00:19;;;;;;;;;;;;;;;;;;5072534;28;20386;-75
2023/09/26 01:02:44;;;;;;;;;;;;;;;;;;5078650;28;19909;-75
2023/09/26 01:05:11;;;;;;;;;;;;;;;;;;5077566;28;20328;-75
2023/09/26 01:07:37;;;;;;;;;;;;;;;;;;5072201;28;19948;-76
2023/09/26 01:10:10;;;;;;;;;;;;;;;;;;5071857;28;20006;-77
2023/09/26 01:12:36;;;;;;;;;;;;;;;;;;5074409;28;19952;-75
2023/09/26 01:15:01;;;;;;;;;;;;;;;;;;5077368;28;19915;-74
2023/09/26 01:17:27;;;;;;;;;;;;;;;;;;5074431;28;19909;-75
2023/09/26 01:19:53;;;;;;;;;;;;;;;;;;5074712;28;19913;-74
2023/09/26 01:22:19;;;;;;;;;;;;;;;;;;5078126;28;19999;-74
2023/09/26 01:24:45;;;;;;;;;;;;;;;;;;5081848;28;19934;-75
2023/09/26 01:27:11;;;;;;;;;;;;;;;;;;5079410;28;20287;-74
2023/09/26 01:29:37;;;;;;;;;;;;;;;;;;5080099;28;19920;-74
2023/09/26 01:32:03;;;;;;;;;;;;;;;;;;5079658;28;19912;-74
2023/09/26 01:34:29;;;;;;;;;;;;;;;;;;5075040;28;20330;-75
2023/09/26 01:36:55;;;;;;;;;;;;;;;;;;5074498;28;19909;-74
2023/09/26 01:39:21;;;;;;;;;;;;;;;;;;5056379;28;19915;-74
2023/09/26 01:41:47;;;;;;;;;;;;;;;;;;5073899;28;19929;-73
2023/09/26 01:44:12;;;;;;;;;;;;;;;;;;5074039;28;19915;-74
2023/09/26 01:46:38;;;;;;;;;;;;;;;;;;5074249;28;20486;-74
2023/09/26 01:49:04;;;;;;;;;;;;;;;;;;5056159;28;19912;-74
2023/09/26 01:51:30;;;;;;;;;;;;;;;;;;5074080;28;19915;-74
2023/09/26 01:53:56;;;;;;;;;;;;;;;;;;5073781;28;19934;-73
2023/09/26 01:56:22;;;;;;;;;;;;;;;;;;5074651;28;19983;-75
2023/09/26 01:58:48;;;;;;;;;;;;;;;;;;5083789;28;20337;-77
2023/09/26 02:01:14;;;;;;;;;;;;;;;;;;5088539;28;20011;-79
2023/09/26 02:03:40;;;;;;;;;;;;;;;;;;5078744;28;19913;-75
2023/09/26 02:06:06;;;;;;;;;;;;;;;;;;5074229;28;19915;-76
2023/09/26 02:08:31;;;;;;;;;;;;;;;;;;5073860;28;19919;-70
2023/09/26 02:10:57;;;;;;;;;;;;;;;;;;5073596;28;19920;-69
2023/09/26 02:13:25;;;;;;;;;;;;;;;;;;5072171;28;19909;-68
2023/09/26 02:15:50;;;;;;;;;;;;;;;;;;5073751;28;19908;-70
2023/09/26 02:18:16;;;;;;;;;;;;;;;;;;5073680;28;19908;-70
2023/09/26 02:20:42;;;;;;;;;;;;;;;;;;5073621;28;19912;-70
2023/09/26 02:23:08;;;;;;;;;;;;;;;;;;5073970;28;20360;-70
2023/09/26 02:25:34;;;;;;;;;;;;;;;;;;5073662;28;20386;-69
2023/09/26 02:28:00;;;;;;;;;;;;;;;;;;5056071;28;19908;-72
2023/09/26 02:30:26;;;;;;;;;;;;;;;;;;5073867;28;20345;-71
2023/09/26 02:32:52;;;;;;;;;;;;;;;;;;5075115;28;19909;-70
2023/09/26 02:35:19;;;;;;;;;;;;;;;;;;5074608;28;19912;-72
2023/09/26 02:37:45;;;;;;;;;;;;;;;;;;5075682;28;20433;-73
2023/09/26 02:40:12;;;;;;;;;;;;;;;;;;5075177;28;19913;-73
2023/09/26 02:42:38;;;;;;;;;;;;;;;;;;5075383;28;19915;-73
2023/09/26 02:45:04;;;;;;;;;;;;;;;;;;5073528;28;19908;-73
2023/09/26 02:47:30;;;;;;;;;;;;;;;;;;5074002;28;20445;-73
2023/09/26 02:49:56;;;;;;;;;;;;;;;;;;5073525;28;19917;-71
2023/09/26 02:52:21;;;;;;;;;;;;;;;;;;5055560;28;19916;-72
2023/09/26 02:54:47;;;;;;;;;;;;;;;;;;5071506;28;19970;-73
2023/09/26 02:57:14;;;;;;;;;;;;;;;;;;5072817;28;19909;-73
2023/09/26 02:59:40;;;;;;;;;;;;;;;;;;5072709;28;19909;-72
2023/09/26 03:02:06;;;;;;;;;;;;;;;;;;5072754;28;19953;-73
2023/09/26 03:04:32;;;;;;;;;;;;;;;;;;5072530;28;19912;-73
2023/09/26 03:06:57;;;;;;;;;;;;;;;;;;5072821;28;19909;-72
2023/09/26 03:09:23;;;;;;;;;;;;;;;;;;5072758;28;19912;-73
2023/09/26 03:11:49;;;;;;;;;;;;;;;;;;5072757;28;20292;-73
2023/09/26 03:14:15;;;;;;;;;;;;;;;;;;5072416;28;19916;-74
2023/09/26 03:16:41;;;;;;;;;;;;;;;;;;5072765;28;19909;-72
2023/09/26 03:19:07;;;;;;;;;;;;;;;;;;5073091;28;20445;-73
2023/09/26 03:21:33;;;;;;;;;;;;;;;;;;5072761;28;19932;-73
2023/09/26 03:23:59;;;;;;;;;;;;;;;;;;5072432;28;20363;-72
2023/09/26 03:26:25;;;;;;;;;;;;;;;;;;5072700;28;19909;-72
2023/09/26 03:28:51;;;;;;;;;;;;;;;;;;5072433;28;19940;-71
2023/09/26 03:31:16;;;;;;;;;;;;;;;;;;5054365;28;19914;-71
2023/09/26 03:33:42;;;;;;;;;;;;;;;;;;5072105;28;20314;-73
2023/09/26 03:36:08;;;;;;;;;;;;;;;;;;5054267;28;19954;-73
2023/09/26 03:38:34;;;;;;;;;;;;;;;;;;5072229;28;19999;-73
2023/09/26 03:41:00;;;;;;;;;;;;;;;;;;5072005;28;19916;-72
2023/09/26 03:43:29;;;;;;;;;;;;;;;;;;5072029;28;19909;-74
2023/09/26 03:45:55;;;;;;;;;;;;;;;;;;5072197;28;19908;-74
2023/09/26 03:48:20;;;;;;;;;;;;;;;;;;5063202;28;19916;-74
2023/09/26 03:50:47;;;;;;;;;;;;;;;;;;5071952;28;19912;-74
2023/09/26 03:53:13;;;;;;;;;;;;;;;;;;5073191;28;19999;-74
2023/09/26 03:55:39;;;;;;;;;;;;;;;;;;5073996;28;19909;-75
2023/09/26 03:58:06;;;;;;;;;;;;;;;;;;5074009;28;19919;-73
2023/09/26 04:00:32;;;;;;;;;;;;;;;;;;5056276;28;19920;-74
2023/09/26 04:02:58;;;;;;;;;;;;;;;;;;5079214;28;19908;-74
2023/09/26 04:05:25;;;;;;;;;;;;;;;;;;5074830;28;19909;-74
2023/09/26 04:07:51;;;;;;;;;;;;;;;;;;5068700;28;19908;-73
2023/09/26 04:10:17;;;;;;;;;;;;;;;;;;5071553;28;19920;-73
2023/09/26 04:12:43;;;;;;;;;;;;;;;;;;5053852;28;19913;-74
2023/09/26 04:15:09;;;;;;;;;;;;;;;;;;5071528;28;19908;-73
2023/09/26 04:17:35;;;;;;;;;;;;;;;;;;5071687;28;20010;-74
2023/09/26 04:20:12;;;;;;;;;;;;;;;;;;5071551;28;19908;-74
2023/09/26 04:22:37;;;;;;;;;;;;;;;;;;5071495;28;19908;-73
2023/09/26 04:25:03;;;;;;;;;;;;;;;;;;5071063;28;20003;-73
2023/09/26 04:27:29;;;;;;;;;;;;;;;;;;5071419;28;19908;-73
2023/09/26 04:29:55;;;;;;;;;;;;;;;;;;5071438;28;19913;-73
2023/09/26 04:32:22;;;;;;;;;;;;;;;;;;5071463;28;20401;-72
2023/09/26 04:34:48;;;;;;;;;;;;;;;;;;5071373;28;19912;-73
2023/09/26 04:37:14;;;;;;;;;;;;;;;;;;5071363;28;19931;-74
2023/09/26 04:39:40;;;;;;;;;;;;;;;;;;5053241;28;19909;-73
2023/09/26 04:42:06;;;;;;;;;;;;;;;;;;5071561;28;19917;-73
2023/09/26 04:44:32;;;;;;;;;;;;;;;;;;5072809;28;20374;-74
2023/09/26 04:46:57;;;;;;;;;;;;;;;;;;5071421;28;19909;-71
2023/09/26 04:49:23;;;;;;;;;;;;;;;;;;5071117;28;19935;-74
2023/09/26 04:51:49;;;;;;;;;;;;;;;;;;5069949;28;19908;-73
2023/09/26 04:54:15;;;;;;;;;;;;;;;;;;5070863;28;19912;-74
2023/09/26 04:56:41;;;;;;;;;;;;;;;;;;5070911;28;20356;-72
2023/09/26 04:59:07;;;;;;;;;;;;;;;;;;5070904;28;20387;-72
2023/09/26 05:01:33;;;;;;;;;;;;;;;;;;5074334;28;19917;-76
2023/09/26 05:03:59;;;;;;;;;;;;;;;;;;5075006;28;19909;-78
2023/09/26 05:06:25;;;;;;;;;;;;;;;;;;5074627;28;19909;-72
2023/09/26 05:08:50;;;;;;;;;;;;;;;;;;5073377;28;19916;-72
2023/09/26 05:11:16;;;;;;;;;;;;;;;;;;5074708;28;20358;-71
2023/09/26 05:13:42;;;;;;;;;;;;;;;;;;5074561;28;19919;-72
2023/09/26 05:16:08;;;;;;;;;;;;;;;;;;5074547;28;19909;-72
2023/09/26 05:18:34;;;;;;;;;;;;;;;;;;5056723;28;20291;-72
2023/09/26 05:21:03;;;;;;;;;;;;;;;;;;5074570;28;19908;-73
2023/09/26 05:23:29;;;;;;;;;;;;;;;;;;5056587;28;19940;-72
2023/09/26 05:25:55;;;;;;;;;;;;;;;;;;5074324;28;19908;-71
2023/09/26 05:28:21;;;;;;;;;;;;;;;;;;5074433;28;19953;-72
2023/09/26 05:30:47;;;;;;;;;;;;;;;;;;5074289;28;19963;-71
2023/09/26 05:33:13;;;;;;;;;;;;;;;;;;5073680;28;19913;-72
2023/09/26 05:35:39;;;;;;;;;;;;;;;;;;5074121;28;19909;-72
2023/09/26 05:38:05;;;;;;;;;;;;;;;;;;5074382;28;19909;-73
2023/09/26 05:40:31;;;;;;;;;;;;;;;;;;5056854;28;19951;-72
2023/09/26 05:42:57;;;;;;;;;;;;;;;;;;5073943;28;19923;-72
2023/09/26 05:45:23;;;;;;;;;;;;;;;;;;5071762;28;19912;-72
2023/09/26 05:47:49;;;;;;;;;;;;;;;;;;5072074;28;19936;-72
2023/09/26 05:50:15;;;;;;;;;;;;;;;;;;5071854;28;19981;-73
2023/09/26 05:52:41;;;;;;;;;;;;;;;;;;5071573;28;20318;-72
2023/09/26 05:55:07;;;;;;;;;;;;;;;;;;5053504;28;19931;-73
2023/09/26 05:57:33;;;;;;;;;;;;;;;;;;5071475;28;19916;-72
2023/09/26 05:59:59;;;;;;;;;;;;;;;;;;5072507;28;19915;-73
2023/09/26 06:02:25;;;;;;;;;;;;;;;;;;5071210;28;20286;-72
2023/09/26 06:04:51;;;;;;;;;;;;;;;;;;5073775;28;19908;-72
2023/09/26 06:07:17;;;;;;;;;;;;;;;;;;5073637;28;20380;-72
2023/09/26 06:09:43;;;;;;;;;;;;;;;;;;5076576;28;19926;-72
2023/09/26 06:12:09;;;;;;;;;;;;;;;;;;5071430;28;19912;-73
2023/09/26 06:14:35;;;;;;;;;;;;;;;;;;5074007;28;20341;-73
2023/09/26 06:17:01;;;;;;;;;;;;;;;;;;5073589;28;19909;-72
2023/09/26 06:19:27;;;;;;;;;;;;;;;;;;5073579;28;19908;-71
2023/09/26 06:21:53;;;;;;;;;;;;;;;;;;5073342;28;19919;-72
2023/09/26 06:24:19;;;;;;;;;;;;;;;;;;5073388;28;20347;-72
2023/09/26 06:26:45;;;;;;;;;;;;;;;;;;5073458;28;19954;-71
2023/09/26 06:29:12;;;;;;;;;;;;;;;;;;5073464;28;19936;-71
2023/09/26 06:31:40;;;;;;;;;;;;;;;;;;5073774;28;19912;-72
2023/09/26 06:34:06;;;;;;;;;;;;;;;;;;5076126;28;19909;-72
2023/09/26 06:36:31;;;;;;;;;;;;;;;;;;5078106;28;19912;-72
2023/09/26 06:38:57;;;;;;;;;;;;;;;;;;5080147;28;19908;-72
2023/09/26 06:41:23;;;;;;;;;;;;;;;;;;5093685;22;20311;-73
2023/09/26 06:43:49;;;;;;;;;;;;;;;;;;5067633;28;20324;-73
2023/09/26 06:46:15;;;;;;;;;;;;;;;;;;5070814;28;20003;-73
2023/09/26 06:48:44;;;;;;;;;;;;;;;;;;5064540;28;19913;-73
2023/09/26 06:51:11;;;;;;;;;;;;;;;;;;5067078;28;20398;-73
2023/09/26 06:53:37;;;;;;;;;;;;;;;;;;5072595;28;19912;-73
2023/09/26 06:56:03;;;;;;;;;;;;;;;;;;5072893;28;20304;-73
2023/09/26 06:58:29;;;;;;;;;;;;;;;;;;5072960;28;19909;-74
2023/09/26 07:00:54;;;;;;;;;;;;;;;;;;5072828;28;19915;-73
2023/09/26 07:03:20;;;;;;;;;;;;;;;;;;5072084;28;19914;-73
2023/09/26 07:05:47;;;;;;;;;;;;;;;;;;5072450;28;19916;-73
2023/09/26 07:08:14;;;;;;;;;;;;;;;;;;5072585;28;19915;-74
2023/09/26 07:10:40;;;;;;;;;;;;;;;;;;5072174;28;19978;-74
2023/09/26 07:13:06;;;;;;;;;;;;;;;;;;5054236;28;20497;-74
2023/09/26 07:15:32;;;;;;;;;;;;;;;;;;5087911;28;19930;-73
2023/09/26 07:17:59;;;;;;;;;;;;;;;;;;5072483;28;20367;-75
2023/09/26 07:20:25;;;;;;;;;;;;;;;;;;5067311;28;20400;-74
2023/09/26 07:22:51;;;;;;;;;;;;;;;;;;5067795;28;20387;-75
2023/09/26 07:25:16;;;;;;;;;;;;;;;;;;5049692;28;19916;-74
2023/09/26 07:27:42;;;;;;;;;;;;;;;;;;5070097;28;20040;-75
2023/09/26 07:30:11;;;;;;;;;;;;;;;;;;5070403;28;19912;-74
2023/09/26 07:32:37;;;;;;;;;;;;;;;;;;5071866;28;19935;-74
2023/09/26 07:35:03;;;;;;;;;;;;;;;;;;5053050;28;20375;-74
2023/09/26 07:37:29;;;;;;;;;;;;;;;;;;5072175;28;19909;-74
2023/09/26 07:39:55;;;;;;;;;;;;;;;;;;5072228;28;19995;-74
2023/09/26 07:42:21;;;;;;;;;;;;;;;;;;5072408;28;20013;-74
2023/09/26 07:44:47;;;;;;;;;;;;;;;;;;5071797;28;19920;-75
2023/09/26 07:47:13;;;;;;;;;;;;;;;;;;5071299;28;19919;-74
2023/09/26 07:49:40;;;;;;;;;;;;;;;;;;5077797;28;19917;-74
2023/09/26 07:52:06;;;;;;;;;;;;;;;;;;5071567;28;19913;-75
2023/09/26 07:54:32;;;;;;;;;;;;;;;;;;5071753;28;20382;-74
2023/09/26 07:56:58;;;;;;;;;;;;;;;;;;5072264;28;19942;-74
2023/09/26 07:59:24;;;;;;;;;;;;;;;;;;5074017;28;19931;-74
2023/09/26 08:01:50;;;;;;;;;;;;;;;;;;5073587;28;19916;-74
2023/09/26 08:04:16;;;;;;;;;;;;;;;;;;5073352;28;19909;-74
2023/09/26 08:06:42;;;;;;;;;;;;;;;;;;5071865;28;19908;-74
2023/09/26 08:09:10;;;;;;;;;;;;;;;;;;5068201;28;20015;-74
2023/09/26 08:11:37;;;;;;;;;;;;;;;;;;5080089;28;20379;-74
2023/09/26 08:14:03;;;;;;;;;;;;;;;;;;5072395;28;19951;-73
2023/09/26 08:16:29;;;;;;;;;;;;;;;;;;5072309;28;19915;-73
2023/09/26 08:18:55;;;;;;;;;;;;;;;;;;5071641;28;19909;-73
2023/09/26 08:21:21;;;;;;;;;;;;;;;;;;5071794;28;19912;-72
2023/09/26 08:23:48;;;;;;;;;;;;;;;;;;5071232;28;19916;-74
2023/09/26 08:26:14;;;;;;;;;;;;;;;;;;5071733;28;19908;-73
2023/09/26 08:28:40;;;;;;;;;;;;;;;;;;5053624;28;20390;-74
2023/09/26 08:31:07;;;;;;;;;;;;;;;;;;5070939;28;19912;-75
2023/09/26 08:33:33;;;;;;;;;;;;;;;;;;5071621;28;19920;-74
2023/09/26 08:35:59;;;;;;;;;;;;;;;;;;5071116;28;19908;-74
2023/09/26 08:38:25;;;;;;;;;;;;;;;;;;5071659;28;19909;-74
2023/09/26 08:40:51;;;;;;;;;;;;;;;;;;5071377;28;19908;-76
2023/09/26 08:43:17;;;;;;;;;;;;;;;;;;5071416;28;19990;-74
2023/09/26 08:45:43;;;;;;;;;;;;;;;;;;5071213;28;20414;-74
2023/09/26 08:48:09;;;;;;;;;;;;;;;;;;5071667;28;19920;-74
2023/09/26 08:50:35;;;;;;;;;;;;;;;;;;5053308;28;20031;-75
2023/09/26 08:53:01;;;;;;;;;;;;;;;;;;5087149;28;19908;-73
2023/09/26 08:55:27;;;;;;;;;;;;;;;;;;5070968;28;19912;-73
2023/09/26 08:57:52;;;;;;;;;;;;;;;;;;5071370;28;19908;-73
2023/09/26 09:00:19;;;;;;;;;;;;;;;;;;5071137;28;20417;-74
2023/09/26 09:02:45;;;;;;;;;;;;;;;;;;5069771;28;19961;-74
2023/09/26 09:05:10;;;;;;;;;;;;;;;;;;5071636;28;19908;-74
2023/09/26 09:07:36;;;;;;;;;;;;;;;;;;5051794;28;19912;-74
2023/09/26 09:10:02;;;;;;;;;;;;;;;;;;5071092;28;19913;-74
2023/09/26 09:12:28;;;;;;;;;;;;;;;;;;5071651;28;19915;-74
2023/09/26 09:14:55;;;;;;;;;;;;;;;;;;5071092;28;19908;-74
2023/09/26 09:17:21;;;;;;;;;;;;;;;;;;5070145;28;19916;-75
2023/09/26 09:19:46;;;;;;;;;;;;;;;;;;5074620;28;19916;-74
2023/09/26 09:22:12;;;;;;;;;;;;;;;;;;5071235;28;19909;-73
2023/09/26 09:24:39;;;;;;;;;;;;;;;;;;5071389;28;19932;-73
2023/09/26 09:27:05;;;;;;;;;;;;;;;;;;5071290;28;19909;-74
2023/09/26 09:29:31;;;;;;;;;;;;;;;;;;5070764;28;19917;-74
2023/09/26 09:31:56;;;;;;;;;;;;;;;;;;5070868;28;20371;-73
2023/09/26 09:34:25;;;;;;;;;;;;;;;;;;5070929;28;19908;-74
2023/09/26 09:36:51;;;;;;;;;;;;;;;;;;5071024;28;19909;-74
2023/09/26 09:39:19;;;;;;;;;;;;;;;;;;5070924;28;19912;-76
2023/09/26 09:41:45;;;;;;;;;;;;;;;;;;5070559;28;19917;-73
2023/09/26 09:44:11;;;;;;;;;;;;;;;;;;5069700;28;19919;-74
2023/09/26 09:46:38;;;;;;;;;;;;;;;;;;5071427;28;19912;-75
2023/09/26 09:49:04;;;;;;;;;;;;;;;;;;5074408;28;20287;-74
2023/09/26 09:51:30;;;;;;;;;;;;;;;;;;5074336;28;19965;-74
2023/09/26 09:53:56;;;;;;;;;;;;;;;;;;5074244;28;19909;-74
2023/09/26 09:56:24;;;;;;;;;;;;;;;;;;5074529;28;19908;-75
2023/09/26 09:58:50;;;;;;;;;;;;;;;;;;5074215;28;19908;-75
2023/09/26 10:01:16;;;;;;;;;;;;;;;;;;5071413;28;19916;-74
2023/09/26 10:03:42;;;;;;;;;;;;;;;;;;5069913;28;19921;-74
2023/09/26 10:06:08;;;;;;;;;;;;;;;;;;5073389;28;19915;-74
2023/09/26 10:08:34;;;;;;;;;;;;;;;;;;5056149;28;20270;-72
2023/09/26 10:11:00;;;;;;;;;;;;;;;;;;5073709;28;19919;-74
2023/09/26 10:13:26;;;;;;;;;;;;;;;;;;5073914;28;19908;-74
2023/09/26 10:15:52;;;;;;;;;;;;;;;;;;5074176;28;19994;-74
2023/09/26 10:18:17;;;;;;;;;;;;;;;;;;5073631;28;20276;-74
2023/09/26 10:20:43;;;;;;;;;;;;;;;;;;5073691;28;19915;-76
2023/09/26 10:23:09;;;;;;;;;;;;;;;;;;5073636;28;19908;-74
2023/09/26 10:25:35;;;;;;;;;;;;;;;;;;5053464;28;19938;-74
2023/09/26 10:28:01;;;;;;;;;;;;;;;;;;5073499;28;20386;-74
2023/09/26 10:30:28;;;;;;;;;;;;;;;;;;5073271;28;20428;-73
2023/09/26 10:32:54;;;;;;;;;;;;;;;;;;5071604;28;19995;-73
2023/09/26 10:35:21;;;;;;;;;;;;;;;;;;5069501;28;19961;-74
2023/09/26 10:37:48;;;;;;;;;;;;;;;;;;5073536;28;19919;-74
2023/09/26 10:40:14;;;;;;;;;;;;;;;;;;5073393;28;19908;-74
2023/09/26 10:42:40;;;;;;;;;;;;;;;;;;5073274;28;19916;-74
2023/09/26 10:45:06;;;;;;;;;;;;;;;;;;5073183;28;19908;-74
2023/09/26 10:47:36;;;;;;;;;;;;;;;;;;5073533;28;19939;-74
2023/09/26 10:50:06;;;;;;;;;;;;;;;;;;5073284;28;20233;-74
2023/09/26 10:52:32;;;;;;;;;;;;;;;;;;5072336;28;19939;-75
2023/09/26 10:54:58;;;;;;;;;;;;;;;;;;5054355;28;20517;-74
2023/09/26 10:57:24;;;;;;;;;;;;;;;;;;5071869;28;19919;-75
2023/09/26 10:59:50;;;;;;;;;;;;;;;;;;5073428;28;20271;-75
2023/09/26 11:02:16;;;;;;;;;;;;;;;;;;5054840;28;19955;-75
2023/09/26 11:04:42;;;;;;;;;;;;;;;;;;5072596;28;19912;-73
2023/09/26 11:07:08;;;;;;;;;;;;;;;;;;5073153;28;19909;-73
2023/09/26 11:09:34;;;;;;;;;;;;;;;;;;5072909;28;19912;-74
2023/09/26 11:12:00;;;;;;;;;;;;;;;;;;5072922;28;19995;-75
2023/09/26 11:14:29;;;;;;;;;;;;;;;;;;5054736;28;19913;-74
2023/09/26 11:16:55;;;;;;;;;;;;;;;;;;5055002;28;19908;-75
2023/09/26 11:19:20;;;;;;;;;;;;;;;;;;5054713;28;19909;-74
2023/09/26 11:21:47;;;;;;;;;;;;;;;;;;5072609;28;20433;-74
2023/09/26 11:24:13;;;;;;;;;;;;;;;;;;5072524;28;20456;-74
2023/09/26 11:26:38;;;;;;;;;;;;;;;;;;5073033;28;19913;-75
2023/09/26 11:29:04;;;;;;;;;;;;;;;;;;5072602;28;19922;-74
2023/09/26 11:31:31;;;;;;;;;;;;;;;;;;5088050;28;19944;-74
2023/09/26 11:33:59;;;;;;;;;;;;;;;;;;5072287;28;19983;-74
2023/09/26 11:36:25;;;;;;;;;;;;;;;;;;5073008;28;19936;-74
2023/09/26 11:38:51;;;;;;;;;;;;;;;;;;5072312;28;19963;-74
2023/09/26 11:41:17;;;;;;;;;;;;;;;;;;5071445;28;20379;-73
2023/09/26 11:43:47;;;;;;;;;;;;;;;;;;5070330;28;20007;-74
2023/09/26 11:46:13;;;;;;;;;;;;;;;;;;5071550;28;20037;-73
2023/09/26 11:48:39;;;;;;;;;;;;;;;;;;5072716;28;19909;-74
2023/09/26 11:51:05;;;;;;;;;;;;;;;;;;5071276;28;19995;-73
2023/09/26 11:53:30;;;;;;;;;;;;;;;;;;5072048;28;19958;-74
2023/09/26 11:55:56;;;;;;;;;;;;;;;;;;5071991;28;19908;-74
2023/09/26 11:58:22;;;;;;;;;;;;;;;;;;5072434;28;19915;-75
2023/09/26 12:00:48;;;;;;;;;;;;;;;;;;5072459;28;19909;-74
2023/09/26 12:03:14;;;;;;;;;;;;;;;;;;5071769;28;19908;-74
2023/09/26 12:05:40;;;;;;;;;;;;;;;;;;5067272;28;20410;-75
2023/09/26 12:08:06;;;;;;;;;;;;;;;;;;5068915;28;19912;-75
2023/09/26 12:10:33;;;;;;;;;;;;;;;;;;5068991;28;19970;-74
2023/09/26 12:12:59;;;;;;;;;;;;;;;;;;5068952;28;19912;-76
2023/09/26 12:15:25;;;;;;;;;;;;;;;;;;5070141;28;20023;-74
2023/09/26 12:17:51;;;;;;;;;;;;;;;;;;5069520;28;20583;-74
2023/09/26 12:20:21;;;;;;;;;;;;;;;;;;5071956;28;19919;-74
2023/09/26 12:22:47;;;;;;;;;;;;;;;;;;5087873;28;20058;-73
2023/09/26 12:25:13;;;;;;;;;;;;;;;;;;5071171;28;19987;-74
2023/09/26 12:27:39;;;;;;;;;;;;;;;;;;5072244;28;19915;-74
2023/09/26 12:30:05;;;;;;;;;;;;;;;;;;5087525;28;20371;-74
2023/09/26 12:32:31;;;;;;;;;;;;;;;;;;5087377;28;19909;-74
2023/09/26 12:34:57;;;;;;;;;;;;;;;;;;5087269;28;19913;-74
2023/09/26 12:37:23;;;;;;;;;;;;;;;;;;5087476;28;20395;-74
2023/09/26 12:39:49;;;;;;;;;;;;;;;;;;5087446;28;19955;-73
2023/09/26 12:42:14;;;;;;;;;;;;;;;;;;5087847;28;19920;-73
2023/09/26 12:44:41;;;;;;;;;;;;;;;;;;5087546;28;19909;-73
2023/09/26 12:47:09;;;;;;;;;;;;;;;;;;5071952;28;19991;-73
2023/09/26 12:49:35;;;;;;;;;;;;;;;;;;5081106;28;20379;-72
2023/09/26 12:52:01;;;;;;;;;;;;;;;;;;5057482;28;19982;-73
2023/09/26 12:54:27;;;;;;;;;;;;;;;;;;5081561;28;19940;-72
2023/09/26 12:56:55;;;;;;;;;;;;;;;;;;5070591;28;19916;-72
2023/09/26 12:59:21;;;;;;;;;;;;;;;;;;5070501;28;20110;-73
2023/09/26 13:01:47;;;;;;;;;;;;;;;;;;5070098;28;20003;-72
2023/09/26 13:04:13;;;;;;;;;;;;;;;;;;5069953;28;19909;-73
2023/09/26 13:06:39;;;;;;;;;;;;;;;;;;5070287;28;19913;-74
2023/09/26 13:09:06;;;;;;;;;;;;;;;;;;5070353;28;20367;-73
2023/09/26 13:11:32;;;;;;;;;;;;;;;;;;5071411;28;19920;-73
2023/09/26 13:13:58;;;;;;;;;;;;;;;;;;5086955;28;19909;-73
2023/09/26 13:16:24;;;;;;;;;;;;;;;;;;5071800;28;20287;-73
2023/09/26 13:18:56;;;;;;;;;;;;;;;;;;5071616;28;19909;-73
2023/09/26 13:21:22;;;;;;;;;;;;;;;;;;5088946;28;19914;-74
2023/09/26 13:23:48;;;;;;;;;;;;;;;;;;5090828;28;19912;-74
2023/09/26 13:26:14;;;;;;;;;;;;;;;;;;5075317;28;19932;-74
2023/09/26 13:28:40;;;;;;;;;;;;;;;;;;5091022;28;20359;-74
2023/09/26 13:31:06;;;;;;;;;;;;;;;;;;5075099;28;20007;-74
2023/09/26 13:33:32;;;;;;;;;;;;;;;;;;5090769;28;19915;-73
2023/09/26 13:35:58;;;;;;;;;;;;;;;;;;5091049;28;19909;-73
2023/09/26 13:38:24;;;;;;;;;;;;;;;;;;5090558;28;19912;-74
2023/09/26 13:40:50;;;;;;;;;;;;;;;;;;5074454;28;19908;-73
2023/09/26 13:43:16;;;;;;;;;;;;;;;;;;5073534;28;20346;-73
2023/09/26 13:45:42;;;;;;;;;;;;;;;;;;5073379;28;19908;-76
2023/09/26 13:48:07;;;;;;;;;;;;;;;;;;5091133;28;19920;-73
2023/09/26 13:50:34;;;;;;;;;;;;;;;;;;5095144;28;19912;-72
2023/09/26 13:53:00;;;;;;;;;;;;;;;;;;5077093;28;19989;-74
2023/09/26 13:55:32;;;;;;;;;;;;;;;;;;5076400;28;19912;-72
2023/09/26 13:57:58;;;;;;;;;;;;;;;;;;5077007;28;20003;-73
2023/09/26 14:00:24;;;;;;;;;;;;;;;;;;5095005;28;19990;-73
2023/09/26 14:02:50;;;;;;;;;;;;;;;;;;5094236;28;19908;-73
2023/09/26 14:05:16;;;;;;;;;;;;;;;;;;5092632;28;20345;-73
2023/09/26 14:07:42;;;;;;;;;;;;;;;;;;5066069;28;19912;-73
2023/09/26 14:10:09;;;;;;;;;;;;;;;;;;5083618;28;19916;-73
2023/09/26 14:12:35;;;;;;;;;;;;;;;;;;5084951;28;19908;-73
2023/09/26 14:15:01;;;;;;;;;;;;;;;;;;5083724;28;19955;-73
2023/09/26 14:17:27;;;;;;;;;;;;;;;;;;5072820;28;20383;-73
2023/09/26 14:19:53;;;;;;;;;;;;;;;;;;5074295;28;19940;-73
2023/09/26 14:22:19;;;;;;;;;;;;;;;;;;5072546;28;20372;-71
2023/09/26 14:24:45;;;;;;;;;;;;;;;;;;5074216;28;20398;-73
2023/09/26 14:27:11;;;;;;;;;;;;;;;;;;5090035;28;19905;-74
2023/09/26 14:29:37;;;;;;;;;;;;;;;;;;5074554;28;19923;-74
2023/09/26 14:32:05;;;;;;;;;;;;;;;;;;5073126;28;20384;-74
2023/09/26 14:34:31;;;;;;;;;;;;;;;;;;5073792;28;19942;-72
2023/09/26 14:36:57;;;;;;;;;;;;;;;;;;5089628;28;19909;-73
2023/09/26 14:39:23;;;;;;;;;;;;;;;;;;5074050;28;19916;-73
2023/09/26 14:41:49;;;;;;;;;;;;;;;;;;5073853;28;19966;-73
2023/09/26 14:44:15;;;;;;;;;;;;;;;;;;5072222;28;19912;-73
2023/09/26 14:46:41;;;;;;;;;;;;;;;;;;5073882;28;19912;-73
2023/09/26 14:49:07;;;;;;;;;;;;;;;;;;5073845;28;19909;-73
2023/09/26 14:51:33;;;;;;;;;;;;;;;;;;5073626;28;19988;-74
2023/09/26 14:53:59;;;;;;;;;;;;;;;;;;5073202;28;19915;-72
2023/09/26 14:56:27;;;;;;;;;;;;;;;;;;5086996;28;19934;-72
2023/09/26 14:58:53;;;;;;;;;;;;;;;;;;5093617;28;19999;-73
2023/09/26 15:01:19;;;;;;;;;;;;;;;;;;5093494;28;19951;-74
2023/09/26 15:03:45;;;;;;;;;;;;;;;;;;5093572;28;20431;-74
2023/09/26 15:06:11;;;;;;;;;;;;;;;;;;5093706;28;19908;-74
2023/09/26 15:08:37;;;;;;;;;;;;;;;;;;5093463;28;20379;-73
2023/09/26 15:11:03;;;;;;;;;;;;;;;;;;5093329;28;19919;-74
2023/09/26 15:13:29;;;;;;;;;;;;;;;;;;5074865;28;19908;-73
2023/09/26 15:15:55;;;;;;;;;;;;;;;;;;5093292;28;19915;-73
2023/09/26 15:18:21;;;;;;;;;;;;;;;;;;5093370;28;19915;-73
2023/09/26 15:20:47;;;;;;;;;;;;;;;;;;5091541;28;19916;-74
2023/09/26 15:23:13;;;;;;;;;;;;;;;;;;5093235;28;20371;-74
2023/09/26 15:25:39;;;;;;;;;;;;;;;;;;5092968;28;20279;-74
2023/09/26 15:28:05;;;;;;;;;;;;;;;;;;5092345;28;20335;-73
2023/09/26 15:30:31;;;;;;;;;;;;;;;;;;5093024;28;20406;-73
2023/09/26 15:32:57;;;;;;;;;;;;;;;;;;5092837;28;19956;-73
2023/09/26 15:35:23;;;;;;;;;;;;;;;;;;5092778;28;19911;-73
2023/09/26 15:37:49;;;;;;;;;;;;;;;;;;5092948;28;19916;-74
2023/09/26 15:40:14;;;;;;;;;;;;;;;;;;5092871;28;19915;-74
2023/09/26 15:42:40;;;;;;;;;;;;;;;;;;5092587;28;20295;-74
2023/09/26 15:45:06;;;;;;;;;;;;;;;;;;5092502;28;19911;-73
2023/09/26 15:47:32;;;;;;;;;;;;;;;;;;5092970;28;19915;-73
2023/09/26 15:49:58;;;;;;;;;;;;;;;;;;5093323;28;19919;-73
2023/09/26 15:52:24;;;;;;;;;;;;;;;;;;5092774;28;20294;-73
2023/09/26 15:54:51;;;;;;;;;;;;;;;;;;5090990;28;19912;-73
2023/09/26 15:57:17;;;;;;;;;;;;;;;;;;5053605;28;19916;-73
2023/09/26 15:59:43;;;;;;;;;;;;;;;;;;5068796;28;20429;-73
2023/09/26 16:02:09;;;;;;;;;;;;;;;;;;5071620;28;19991;-74
2023/09/26 16:04:35;;;;;;;;;;;;;;;;;;5071448;28;20364;-72
2023/09/26 16:07:04;;;;;;;;;;;;;;;;;;5072362;28;19908;-73
2023/09/26 16:09:29;;;;;;;;;;;;;;;;;;5072418;28;20402;-72
2023/09/26 16:11:55;;;;;;;;;;;;;;;;;;5072020;28;19993;-73
2023/09/26 16:14:21;;;;;;;;;;;;;;;;;;5072117;28;19955;-73
2023/09/26 16:16:47;;;;;;;;;;;;;;;;;;5072258;28;19913;-73
2023/09/26 16:19:13;;;;;;;;;;;;;;;;;;5072233;28;20292;-73
2023/09/26 16:21:39;;;;;;;;;;;;;;;;;;5072198;28;19908;-74
2023/09/26 16:24:05;;;;;;;;;;;;;;;;;;5071256;28;19909;-73
2023/09/26 16:26:31;;;;;;;;;;;;;;;;;;5054304;28;20372;-73
2023/09/26 16:28:57;;;;;;;;;;;;;;;;;;5072175;28;20277;-73
2023/09/26 16:31:23;;;;;;;;;;;;;;;;;;5072103;28;19913;-74
2023/09/26 16:33:49;;;;;;;;;;;;;;;;;;5071755;28;19916;-73
2023/09/26 16:36:15;;;;;;;;;;;;;;;;;;5072273;28;19908;-72
2023/09/26 16:38:42;;;;;;;;;;;;;;;;;;5072499;28;19962;-73